X  Sluiten METAR luchtvaart weer gegevens      EHRD Rotterdam The Hague Airport
Temperatuur
9°C Temperatuur
1°C Dauwpunt
58% Vochtigheid



Wind
32 KM/U
20 MPH
9 M/S
17 KTS



270°
W
Huidig weer

Wat bewolking Wat bewolking
Luchtdruk 1002.03 (hPa) - 29.59 (inHg)
Zicht 6 (mijl) - 9.7 (km)
Vliegveld
Vliegveld code EHRD

Locatie : Rotterdam The Hague Airport
Afstand: 23 (km)

Metar:
EHRD 152225Z AUTO 27017G30KT 220V310 9999 FEW036 BKN040 OVC044 09/01 Q1002 NOSIG

Tijd: 16-04-2024 00:25 CEST